Millington, Maryland
Current Conditions -  °F | °C
As of 10:58 AM on Thursday 27 Nov 2014 (Local Time) from KDOV Reporting Station
Broken Clouds Broken Clouds  
Wind Chill: 35°   Ceiling: 6000
Heat Index: 40°   Visibility: 10mi
Dew Point: 33°   Wind: 8mph
Humidity: 75%   Direction: 270°W
Pressure: 30.03"   Gusts: NA
Location:  39.26°N, 75.84°W
Report Text: KDOV 271558Z AUTO 27007KT 10SM FEW021 BKN060 05/01 A3003 RMK AO2 SLP173 T00460005
Loading
Personal Weather Stations






























Interactive Weather Map New forecast layout! Learn more

10-Day Weather Forecast

Advertisements
Track Severe Weather on mobile